createdAt,value
2017-08-05T00:02:17.499Z,30.20
2017-08-05T00:04:46.396Z,30.40
2017-08-05T00:07:14.527Z,30.30
2017-08-05T00:09:42.657Z,30.40
2017-08-05T00:12:10.832Z,30.30
2017-08-05T00:14:38.966Z,30.30
2017-08-05T00:17:07.092Z,30.40
2017-08-05T00:19:35.304Z,30.40
2017-08-05T00:22:03.532Z,30.40
2017-08-05T00:24:31.752Z,30.50
2017-08-05T00:26:59.905Z,30.40
2017-08-05T00:29:28.031Z,30.40
2017-08-05T00:31:56.156Z,30.50
2017-08-05T00:34:24.296Z,30.50
2017-08-05T00:36:52.456Z,31.80
2017-08-05T00:39:21.369Z,31.20
2017-08-05T00:41:49.509Z,31.20
2017-08-05T00:44:18.431Z,31.40
2017-08-05T00:46:46.555Z,31.10
2017-08-05T00:49:14.798Z,31.20
2017-08-05T00:51:42.924Z,31.20
2017-08-05T00:54:11.043Z,31.30
2017-08-05T00:56:39.175Z,31.30
2017-08-05T00:59:08.064Z,31.40
2017-08-05T01:01:36.972Z,31.40
2017-08-05T01:04:05.140Z,31.40
2017-08-05T01:06:34.045Z,31.50
2017-08-05T01:09:02.187Z,31.50
2017-08-05T01:11:30.359Z,31.40
2017-08-05T01:13:58.689Z,31.30
2017-08-05T01:16:26.828Z,31.40
2017-08-05T01:18:55.756Z,31.50
2017-08-05T01:21:23.877Z,31.40
2017-08-05T01:23:52.036Z,31.50
2017-08-05T01:26:20.176Z,31.40
2017-08-05T01:28:48.297Z,31.40
2017-08-05T01:31:16.476Z,31.40
2017-08-05T01:33:44.614Z,31.40
2017-08-05T01:36:12.832Z,31.50
2017-08-05T01:38:40.973Z,31.50
2017-08-05T01:41:09.099Z,31.50
2017-08-05T01:43:37.997Z,31.50
2017-08-05T01:46:06.133Z,31.50
2017-08-05T01:48:34.332Z,31.50
2017-08-05T01:51:03.232Z,31.50
2017-08-05T01:53:32.205Z,31.60
2017-08-05T01:56:00.316Z,31.60
2017-08-05T01:58:29.040Z,31.60
2017-08-05T02:00:57.881Z,31.60
2017-08-05T02:03:26.011Z,31.50
2017-08-05T02:05:54.248Z,31.60
2017-08-05T02:08:22.380Z,31.60
2017-08-05T02:10:50.980Z,31.50
2017-08-05T02:13:19.875Z,31.40
2017-08-05T02:15:48.880Z,31.50
2017-08-05T02:18:17.081Z,32.10
2017-08-05T02:20:45.200Z,31.50
2017-08-05T02:23:13.357Z,31.50
2017-08-05T02:25:41.496Z,31.60
2017-08-05T02:28:09.648Z,31.60
2017-08-05T02:30:37.772Z,31.50
2017-08-05T02:33:05.891Z,31.50
2017-08-05T02:35:34.799Z,32.70
2017-08-05T02:38:03.022Z,32.70
2017-08-05T02:40:31.159Z,32.20
2017-08-05T02:42:59.301Z,31.40
2017-08-05T02:45:28.208Z,30.80
2017-08-05T02:47:56.369Z,30.80
2017-08-05T02:50:25.288Z,30.30
2017-08-05T02:52:53.448Z,30.30
2017-08-05T02:55:21.588Z,30.40
2017-08-05T02:57:49.717Z,30.60
2017-08-05T03:00:17.827Z,30.80
2017-08-05T03:02:46.217Z,30.90
2017-08-05T03:05:14.369Z,31.00
2017-08-05T03:07:42.479Z,31.00
2017-08-05T03:10:11.853Z,31.10
2017-08-05T03:12:39.992Z,31.10
2017-08-05T03:15:08.227Z,31.10
2017-08-05T03:17:36.449Z,31.10
2017-08-05T03:20:04.655Z,30.90
2017-08-05T03:22:32.823Z,30.80
2017-08-05T03:25:00.939Z,31.00
2017-08-05T03:27:29.825Z,31.00
2017-08-05T03:29:58.729Z,31.00
2017-08-05T03:32:27.620Z,31.10
2017-08-05T03:34:56.496Z,30.90
2017-08-05T03:37:25.384Z,31.30
2017-08-05T03:39:54.283Z,31.00
2017-08-05T03:42:23.219Z,30.90
2017-08-05T03:44:51.340Z,30.90
2017-08-05T03:47:19.470Z,31.00
2017-08-05T03:49:47.632Z,31.20
2017-08-05T03:53:40.310Z,31.40
2017-08-05T03:56:08.672Z,31.50
2017-08-05T03:58:36.806Z,31.80
2017-08-05T04:01:05.716Z,32.30
2017-08-05T04:03:33.851Z,32.00
2017-08-05T04:06:02.005Z,31.90
2017-08-05T04:08:30.159Z,31.90
2017-08-05T04:10:58.279Z,31.90
2017-08-05T04:13:26.416Z,32.00
2017-08-05T04:15:54.560Z,31.90
2017-08-05T04:18:22.676Z,31.90
2017-08-05T04:20:50.800Z,31.80
2017-08-05T04:23:19.708Z,31.90
2017-08-05T04:25:47.854Z,31.90
2017-08-05T04:28:16.757Z,31.90
2017-08-05T04:30:45.732Z,31.90
2017-08-05T04:33:13.847Z,31.90
2017-08-05T04:35:41.962Z,32.30
2017-08-05T04:38:10.104Z,32.90
2017-08-05T04:40:38.241Z,32.30
2017-08-05T04:43:07.192Z,31.80
2017-08-05T04:45:35.304Z,31.80
2017-08-05T04:48:04.207Z,32.00
2017-08-05T04:50:33.106Z,32.10
2017-08-05T04:53:01.992Z,32.10
2017-08-05T04:55:31.520Z,32.10
2017-08-05T04:57:59.763Z,32.80
2017-08-05T05:00:28.651Z,32.20
2017-08-05T05:02:56.788Z,32.10
2017-08-05T05:05:25.074Z,32.10
2017-08-05T05:07:53.223Z,32.10
2017-08-05T05:10:21.348Z,32.20
2017-08-05T05:12:49.471Z,32.20
2017-08-05T05:15:17.604Z,32.10
2017-08-05T05:17:46.520Z,32.10
2017-08-05T05:20:14.664Z,32.10
2017-08-05T05:22:43.560Z,32.20
2017-08-05T05:25:12.468Z,32.20
2017-08-05T05:27:40.589Z,32.20
2017-08-05T05:30:08.744Z,32.20
2017-08-05T05:32:36.863Z,32.20
2017-08-05T05:35:05.008Z,32.20
2017-08-05T05:37:33.119Z,32.20
2017-08-05T05:40:02.741Z,32.20
2017-08-05T05:42:30.835Z,32.30
2017-08-05T05:44:58.980Z,32.20
2017-08-05T05:47:27.950Z,32.20
2017-08-05T05:49:56.104Z,32.20
2017-08-05T05:52:24.226Z,32.10
2017-08-05T05:54:53.120Z,32.10
2017-08-05T05:57:22.025Z,32.10
2017-08-05T05:59:50.154Z,32.00
2017-08-05T06:02:18.329Z,32.00
2017-08-05T06:04:46.461Z,32.00
2017-08-05T06:07:14.584Z,32.10
2017-08-05T06:09:42.724Z,32.00
2017-08-05T06:12:10.888Z,32.10
2017-08-05T06:14:39.062Z,32.10
2017-08-05T06:17:07.202Z,32.00
2017-08-05T06:19:36.080Z,31.80
2017-08-05T06:22:04.976Z,31.80
2017-08-05T06:24:33.291Z,31.80
2017-08-05T06:27:01.448Z,32.40
2017-08-05T06:29:29.585Z,31.80
2017-08-05T06:31:57.721Z,31.80
2017-08-05T06:34:25.868Z,31.70
2017-08-05T06:36:54.028Z,32.60
2017-08-05T06:39:22.996Z,32.20
2017-08-05T06:41:51.132Z,32.20
2017-08-05T06:44:19.268Z,31.40
2017-08-05T06:46:48.184Z,31.20
2017-08-05T06:49:16.312Z,31.80
2017-08-05T06:51:44.477Z,31.10
2017-08-05T06:54:12.600Z,31.10
2017-08-05T06:56:40.744Z,31.00
2017-08-05T06:59:08.976Z,30.90
2017-08-05T07:01:37.117Z,30.90
2017-08-05T07:04:06.004Z,30.90
2017-08-05T07:06:34.887Z,30.80
2017-08-05T07:09:03.884Z,30.80
2017-08-05T07:11:32.860Z,30.70
2017-08-05T07:14:01.003Z,30.70
2017-08-05T07:16:29.131Z,30.70
2017-08-05T07:18:58.560Z,30.50
2017-08-05T07:21:26.696Z,30.50
2017-08-05T07:23:55.604Z,30.70
2017-08-05T07:26:24.568Z,30.40
2017-08-05T07:28:52.703Z,30.40
2017-08-05T07:31:20.871Z,30.30
2017-08-05T07:33:49.000Z,30.30
2017-08-05T07:36:17.132Z,30.40
2017-08-05T07:38:45.252Z,30.30
2017-08-05T07:41:13.372Z,30.30
2017-08-05T07:43:41.503Z,30.30
2017-08-05T07:46:10.404Z,30.40
2017-08-05T07:48:39.332Z,30.40
2017-08-05T07:51:07.479Z,30.30
2017-08-05T07:53:35.600Z,30.30
2017-08-05T07:56:03.753Z,30.40
2017-08-05T07:58:31.904Z,30.40
2017-08-05T08:01:00.041Z,30.30
2017-08-05T08:03:28.192Z,30.20
2017-08-05T08:05:56.322Z,30.30
2017-08-05T08:08:25.187Z,30.30
2017-08-05T08:10:53.336Z,30.30
2017-08-05T08:13:21.460Z,30.30
2017-08-05T08:15:50.345Z,30.30
2017-08-05T08:18:19.295Z,30.30
2017-08-05T08:20:47.520Z,30.30
2017-08-05T08:23:16.425Z,30.30
2017-08-05T08:25:44.652Z,30.30
2017-08-05T08:28:12.777Z,30.20
2017-08-05T08:30:40.896Z,30.30
2017-08-05T08:33:09.047Z,30.30
2017-08-05T08:35:37.184Z,30.50
2017-08-05T08:38:06.096Z,31.70
2017-08-05T08:40:34.286Z,31.60
2017-08-05T08:43:02.420Z,30.80
2017-08-05T08:45:31.323Z,30.20
2017-08-05T08:48:00.204Z,29.90
2017-08-05T08:50:29.708Z,29.70
2017-08-05T08:52:58.599Z,30.00
2017-08-05T08:55:27.488Z,30.20
2017-08-05T08:57:56.369Z,30.30
2017-08-05T09:00:24.493Z,30.30
2017-08-05T09:02:52.616Z,30.40
2017-08-05T09:05:20.727Z,30.40
2017-08-05T09:07:48.880Z,30.50
2017-08-05T09:10:17.854Z,30.70
2017-08-05T09:12:46.004Z,30.60
2017-08-05T09:15:14.131Z,30.60
2017-08-05T09:17:42.278Z,30.60
2017-08-05T09:20:10.425Z,30.50
2017-08-05T09:22:38.792Z,30.50
2017-08-05T09:25:06.944Z,30.60
2017-08-05T09:27:35.084Z,30.50
2017-08-05T09:30:03.212Z,30.50
2017-08-05T09:32:31.343Z,30.50
2017-08-05T09:35:00.235Z,30.60
2017-08-05T09:37:29.111Z,30.50
2017-08-05T09:39:57.283Z,30.50
2017-08-05T09:42:25.801Z,30.40
2017-08-05T09:44:54.692Z,30.50
2017-08-05T09:47:22.828Z,30.50
2017-08-05T09:49:50.936Z,30.60
2017-08-05T09:52:19.052Z,30.50
2017-08-05T09:54:47.176Z,30.60
2017-08-05T09:57:16.097Z,30.60
2017-08-05T09:59:44.220Z,30.60
2017-08-05T10:02:12.356Z,30.60
2017-08-05T10:04:40.500Z,30.50
2017-08-05T10:07:08.625Z,30.40
2017-08-05T10:09:36.845Z,30.50
2017-08-05T10:12:05.760Z,30.50
2017-08-05T10:14:33.971Z,30.40
2017-08-05T10:17:02.089Z,30.40
2017-08-05T10:19:30.238Z,30.40
2017-08-05T10:21:58.363Z,30.30
2017-08-05T10:24:26.540Z,30.30
2017-08-05T10:26:54.723Z,30.20
2017-08-05T10:29:23.012Z,30.20
2017-08-05T10:31:51.136Z,30.20
2017-08-05T10:34:20.040Z,31.10
2017-08-05T10:36:48.213Z,31.10
2017-08-05T10:39:16.349Z,31.60
2017-08-05T10:41:44.492Z,30.90
2017-08-05T10:44:12.634Z,30.00
2017-08-05T10:46:40.852Z,30.10
2017-08-05T10:49:09.010Z,29.60
2017-08-05T10:51:37.608Z,29.30
2017-08-05T10:54:05.747Z,29.40
2017-08-05T10:56:33.872Z,29.40
2017-08-05T10:59:02.019Z,29.30
2017-08-05T11:01:30.167Z,29.20
2017-08-05T11:03:58.312Z,29.10
2017-08-05T11:06:26.432Z,29.20
2017-08-05T11:08:54.563Z,29.10
2017-08-05T11:11:23.468Z,29.00
2017-08-05T11:13:52.383Z,29.00
2017-08-05T11:16:20.581Z,29.00
2017-08-05T11:18:48.703Z,28.90
2017-08-05T11:21:17.615Z,28.70
2017-08-05T11:23:45.844Z,28.70
2017-08-05T11:26:14.009Z,29.10
2017-08-05T11:28:42.145Z,28.70
2017-08-05T11:31:10.293Z,28.60
2017-08-05T11:33:39.196Z,28.50
2017-08-05T11:36:08.172Z,28.50
2017-08-05T11:38:37.096Z,28.50
2017-08-05T11:41:05.232Z,28.50
2017-08-05T11:43:33.367Z,28.50
2017-08-05T11:46:01.505Z,28.50
2017-08-05T11:48:30.428Z,28.50
2017-08-05T11:50:58.561Z,28.50
2017-08-05T11:53:27.451Z,28.40
2017-08-05T11:55:56.344Z,28.40
2017-08-05T11:58:25.236Z,28.30
2017-08-05T12:00:54.227Z,28.30
2017-08-05T12:03:23.225Z,28.30
2017-08-05T12:05:52.116Z,28.20
2017-08-05T12:08:21.031Z,28.70
2017-08-05T12:10:49.163Z,28.20
2017-08-05T12:13:17.296Z,28.10
2017-08-05T12:15:45.445Z,28.10
2017-08-05T12:18:14.328Z,28.00
2017-08-05T12:20:43.216Z,27.90
2017-08-05T12:23:13.183Z,28.00
2017-08-05T12:25:41.324Z,28.00
2017-08-05T12:28:09.475Z,28.00
2017-08-05T12:33:12.176Z,28.10
2017-08-05T12:35:41.421Z,29.70
2017-08-05T12:38:09.567Z,29.40
2017-08-05T12:40:39.040Z,28.70
2017-08-05T12:43:07.160Z,28.70
2017-08-05T12:45:35.307Z,28.70
2017-08-05T12:48:04.276Z,28.10
2017-08-05T12:50:32.403Z,28.10
2017-08-05T12:53:00.611Z,28.20
2017-08-05T12:55:28.792Z,28.40
2017-08-05T12:57:56.948Z,28.30
2017-08-05T13:00:25.109Z,28.60
2017-08-05T13:02:53.223Z,28.30
2017-08-05T13:05:21.356Z,28.40
2017-08-05T13:07:49.496Z,28.70
2017-08-05T13:10:18.391Z,29.10
2017-08-05T13:12:47.286Z,29.30
2017-08-05T13:15:16.170Z,28.90
2017-08-05T13:17:44.288Z,28.80
2017-08-05T13:20:12.424Z,28.90
2017-08-05T13:22:41.312Z,28.90
2017-08-05T13:25:10.211Z,29.10
2017-08-05T13:27:39.101Z,29.00
2017-08-05T13:30:08.024Z,29.00
2017-08-05T13:32:36.154Z,29.00
2017-08-05T13:35:03.976Z,29.00
2017-08-05T13:37:32.084Z,29.00
2017-08-05T13:40:00.224Z,29.00
2017-08-05T13:42:28.360Z,29.00
2017-08-05T13:44:56.473Z,29.10
2017-08-05T13:47:24.609Z,29.10
2017-08-05T13:49:53.543Z,29.10
2017-08-05T13:52:22.040Z,29.10
2017-08-05T13:54:50.176Z,29.20
2017-08-05T13:57:18.303Z,29.20
2017-08-05T13:59:46.452Z,29.10
2017-08-05T14:02:14.576Z,29.20
2017-08-05T14:04:43.567Z,29.10
2017-08-05T14:07:12.458Z,29.10
2017-08-05T14:09:41.368Z,29.10
2017-08-05T14:12:09.504Z,29.10
2017-08-05T14:14:37.644Z,29.00
2017-08-05T14:17:05.756Z,28.90
2017-08-05T14:19:33.880Z,28.80
2017-08-05T14:22:02.005Z,28.90
2017-08-05T14:24:30.139Z,29.00
2017-08-05T14:26:58.255Z,29.00
2017-08-05T14:29:26.396Z,29.00
2017-08-05T14:31:54.543Z,29.00
2017-08-05T14:34:22.695Z,29.00
2017-08-05T14:36:51.580Z,31.00
2017-08-05T14:39:20.579Z,29.90
2017-08-05T14:41:49.463Z,29.40
2017-08-05T14:44:17.624Z,29.30
2017-08-05T14:46:45.984Z,29.40
2017-08-05T14:49:14.149Z,29.00
2017-08-05T14:51:42.281Z,28.80
2017-08-05T14:54:11.213Z,29.00
2017-08-05T14:56:39.358Z,29.00
2017-08-05T14:59:07.492Z,29.10
2017-08-05T15:01:35.657Z,29.10
2017-08-05T15:04:03.776Z,29.00
2017-08-05T15:06:32.663Z,28.80
2017-08-05T15:09:01.555Z,28.30
2017-08-05T15:11:30.448Z,28.60
2017-08-05T15:13:59.357Z,28.80
2017-08-05T15:16:27.505Z,28.80
2017-08-05T15:18:56.384Z,28.90
2017-08-05T15:21:24.516Z,28.80
2017-08-05T15:23:52.656Z,28.90
2017-08-05T15:26:21.550Z,28.80
2017-08-05T15:28:50.431Z,28.80
2017-08-05T15:31:19.343Z,28.80
2017-08-05T15:33:47.508Z,28.70
2017-08-05T15:36:15.752Z,28.70
2017-08-05T15:38:43.892Z,28.60
2017-08-05T15:41:12.033Z,28.70
2017-08-05T15:43:40.923Z,28.60
2017-08-05T15:46:09.897Z,28.60
2017-08-05T15:48:38.041Z,28.60
2017-08-05T15:51:06.164Z,28.60
2017-08-05T15:53:35.080Z,28.60
2017-08-05T15:56:03.220Z,28.60
2017-08-05T15:58:32.123Z,28.80
2017-08-05T16:01:01.024Z,28.60
2017-08-05T16:03:29.172Z,28.60
2017-08-05T16:05:57.299Z,28.60
2017-08-05T16:08:25.468Z,28.60
2017-08-05T16:10:53.588Z,28.60
2017-08-05T16:13:21.728Z,28.60
2017-08-05T16:15:49.880Z,29.10
2017-08-05T16:18:18.824Z,28.70
2017-08-05T16:20:46.964Z,28.60
2017-08-05T16:23:15.084Z,28.60
2017-08-05T16:25:43.205Z,28.60
2017-08-05T16:28:11.339Z,28.60
2017-08-05T16:30:40.344Z,28.90
2017-08-05T16:33:09.254Z,28.90
2017-08-05T16:35:37.368Z,28.80
2017-08-05T16:38:05.612Z,29.80
2017-08-05T16:40:33.744Z,29.60
2017-08-05T16:43:01.868Z,29.00
2017-08-05T16:45:30.087Z,28.90
2017-08-05T16:47:58.207Z,28.70
2017-08-05T16:50:26.324Z,28.40
2017-08-05T16:52:54.467Z,28.30
2017-08-05T16:55:22.637Z,28.60
2017-08-05T16:57:50.744Z,28.50
2017-08-05T17:00:18.869Z,28.70
2017-08-05T17:02:47.035Z,28.30
2017-08-05T17:05:15.932Z,28.80
2017-08-05T17:07:44.172Z,28.70
2017-08-05T17:10:12.304Z,28.80
2017-08-05T17:12:40.528Z,28.80
2017-08-05T17:15:08.664Z,28.80
2017-08-05T17:17:36.813Z,28.90
2017-08-05T17:20:04.952Z,28.90
2017-08-05T17:22:33.101Z,28.90
2017-08-05T17:25:01.211Z,28.90
2017-08-05T17:27:29.885Z,28.90
2017-08-05T17:29:58.015Z,28.90
2017-08-05T17:32:26.155Z,28.90
2017-08-05T17:34:54.309Z,29.00
2017-08-05T17:37:22.436Z,29.00
2017-08-05T17:39:50.573Z,28.90
2017-08-05T17:42:19.476Z,28.90
2017-08-05T17:44:47.621Z,28.90
2017-08-05T17:47:15.747Z,28.90
2017-08-05T17:49:44.588Z,29.00
2017-08-05T17:52:12.719Z,28.90
2017-08-05T17:54:40.914Z,29.40
2017-08-05T17:57:09.128Z,28.90
2017-08-05T17:59:38.052Z,28.90
2017-08-05T18:02:06.876Z,28.90
2017-08-05T18:04:34.995Z,29.40
2017-08-05T18:07:03.879Z,28.90
2017-08-05T18:09:32.780Z,28.90
2017-08-05T18:12:01.849Z,29.00
2017-08-05T18:14:29.980Z,29.00
2017-08-05T18:16:58.108Z,29.00
2017-08-05T18:19:27.013Z,29.10
2017-08-05T18:21:55.924Z,29.10
2017-08-05T18:24:24.055Z,29.10
2017-08-05T18:26:52.260Z,29.10
2017-08-05T18:29:21.176Z,29.10
2017-08-05T18:31:49.316Z,29.10
2017-08-05T18:34:18.203Z,29.90
2017-08-05T18:36:47.105Z,30.50
2017-08-05T18:39:15.993Z,30.10
2017-08-05T18:41:44.900Z,29.50
2017-08-05T18:44:13.037Z,29.50
2017-08-05T18:46:41.170Z,29.50
2017-08-05T18:49:09.320Z,29.10
2017-08-05T18:51:37.476Z,28.90
2017-08-05T18:54:05.709Z,29.00
2017-08-05T18:56:33.836Z,29.10
2017-08-05T18:59:02.740Z,29.20
2017-08-05T19:01:31.657Z,29.20
2017-08-05T19:03:59.784Z,29.20
2017-08-05T19:06:27.906Z,29.20
2017-08-05T19:08:56.048Z,29.20
2017-08-05T19:11:25.534Z,30.10
2017-08-05T19:13:53.662Z,30.00
2017-08-05T19:16:21.823Z,30.00
2017-08-05T19:18:50.828Z,29.80
2017-08-05T19:21:18.963Z,29.80
2017-08-05T19:23:47.971Z,29.60
2017-08-05T19:26:16.152Z,29.60
2017-08-05T19:28:44.267Z,29.60
2017-08-05T19:31:12.400Z,29.60
2017-08-05T19:33:40.535Z,29.70
2017-08-05T19:36:08.656Z,30.20
2017-08-05T19:38:36.787Z,29.80
2017-08-05T19:41:04.996Z,29.80
2017-08-05T19:43:33.879Z,30.00
2017-08-05T19:46:02.772Z,30.00
2017-08-05T19:48:30.912Z,30.00
2017-08-05T19:50:59.032Z,29.90
2017-08-05T19:53:27.168Z,30.00
2017-08-05T19:55:55.303Z,30.00
2017-08-05T19:58:23.420Z,30.00
2017-08-05T20:00:51.552Z,30.10
2017-08-05T20:03:20.698Z,30.00
2017-08-05T20:05:54.543Z,30.20
2017-08-05T20:08:22.730Z,30.20
2017-08-05T20:10:51.108Z,30.20
2017-08-05T20:13:19.320Z,30.30
2017-08-05T20:15:47.456Z,30.20
2017-08-05T20:18:15.583Z,30.40
2017-08-05T20:20:44.464Z,30.20
2017-08-05T20:23:12.604Z,30.50
2017-08-05T20:25:40.774Z,30.60
2017-08-05T20:28:08.881Z,30.60
2017-08-05T20:30:37.000Z,30.70
2017-08-05T20:33:05.141Z,30.60
2017-08-05T20:35:33.272Z,30.70
2017-08-05T20:38:01.385Z,30.70
2017-08-05T20:40:29.515Z,30.60
2017-08-05T20:42:57.645Z,30.30
2017-08-05T20:45:26.543Z,30.30
2017-08-05T20:47:55.445Z,30.20
2017-08-05T20:50:24.356Z,30.20
2017-08-05T20:52:52.485Z,30.10
2017-08-05T20:55:21.528Z,30.20
2017-08-05T20:57:49.663Z,30.30
2017-08-05T21:00:17.796Z,30.40
2017-08-05T21:02:46.003Z,30.40
2017-08-05T21:05:14.145Z,30.40
2017-08-05T21:07:42.271Z,30.40
2017-08-05T21:10:11.180Z,30.50
2017-08-05T21:12:39.312Z,30.40
2017-08-05T21:15:07.428Z,30.50
2017-08-05T21:17:35.904Z,30.40
2017-08-05T21:20:03.716Z,30.40
2017-08-05T21:22:31.944Z,30.40
2017-08-05T21:25:00.823Z,30.40
2017-08-05T21:27:29.792Z,30.50
2017-08-05T21:29:57.924Z,30.40
2017-08-05T21:32:26.068Z,30.30
2017-08-05T21:34:54.983Z,30.40
2017-08-05T21:37:23.100Z,30.30
2017-08-05T21:39:51.243Z,30.30
2017-08-05T21:42:19.376Z,30.20
2017-08-05T21:44:48.286Z,30.30
2017-08-05T21:47:16.416Z,30.30
2017-08-05T21:49:44.532Z,30.30
2017-08-05T21:52:12.668Z,30.30
2017-08-05T21:54:40.784Z,30.20
2017-08-05T21:57:08.909Z,30.20
2017-08-05T21:59:41.663Z,30.20
2017-08-05T22:02:14.505Z,30.20
2017-08-05T22:04:43.665Z,30.20
2017-08-05T22:07:11.779Z,30.20
2017-08-05T22:09:40.652Z,30.20
2017-08-05T22:12:08.784Z,30.20
2017-08-05T22:14:36.925Z,30.80
2017-08-05T22:17:05.812Z,30.20
2017-08-05T22:19:33.928Z,30.20
2017-08-05T22:22:02.060Z,30.20
2017-08-05T22:24:30.984Z,30.20
2017-08-05T22:26:59.109Z,30.20
2017-08-05T22:29:27.244Z,30.10
2017-08-05T22:31:55.383Z,30.10
2017-08-05T22:34:24.292Z,30.70
2017-08-05T22:36:52.427Z,30.10
2017-08-05T22:39:20.550Z,30.00
2017-08-05T22:41:48.680Z,29.80
2017-08-05T22:44:17.568Z,29.60
2017-08-05T22:46:46.543Z,29.10
2017-08-05T22:49:14.652Z,29.50
2017-08-05T22:51:43.548Z,29.50
2017-08-05T22:54:11.690Z,29.50
2017-08-05T22:56:44.809Z,29.60
2017-08-05T22:59:13.222Z,29.70
2017-08-05T23:01:41.351Z,29.70
2017-08-05T23:04:10.261Z,29.90
2017-08-05T23:06:38.521Z,29.80
2017-08-05T23:09:07.425Z,30.00
2017-08-05T23:11:36.341Z,29.90
2017-08-05T23:14:04.456Z,29.90
2017-08-05T23:16:32.597Z,30.00
2017-08-05T23:19:00.769Z,30.00
2017-08-05T23:21:28.875Z,30.00
2017-08-05T23:23:56.995Z,30.00
2017-08-05T23:26:25.108Z,30.00
2017-08-05T23:28:53.241Z,30.00
2017-08-05T23:31:21.389Z,30.00
2017-08-05T23:33:49.515Z,30.40
2017-08-05T23:36:17.644Z,29.90
2017-08-05T23:38:46.544Z,29.90
2017-08-05T23:41:15.436Z,29.90
2017-08-05T23:43:44.320Z,29.90
2017-08-05T23:46:13.211Z,29.90
2017-08-05T23:48:42.108Z,29.90
2017-08-05T23:51:11.028Z,29.90
2017-08-05T23:53:39.166Z,30.20
2017-08-05T23:56:07.303Z,29.80
2017-08-05T23:58:35.430Z,29.80
